Time;durP1;ratioP1;P1;durP2;ratioP2;P2;SDS_P1;SDS_P2;PMS_P1;PMS_P2;Temp;Humidity;BMP_temperature;BMP_pressure;BME280_temperature;BME280_humidity;BME280_pressure;Samples;Min_cycle;Max_cycle;Signal;HPM_P1;HPM_P2
2023/05/02 00:02:55;;;;;;;;;;;;;;;10.63;52.10;98912.59;131250;1281;5371631;-68
2023/05/02 00:05:58;;;;;;;;;;;;;;;10.51;52.26;98914.15;135279;1281;22663;-67
2023/05/02 00:09:00;;;;;;;;;;;;;;;10.50;52.27;98908.27;135278;1281;22497;-68
2023/05/02 00:12:03;;;;;;;;;;;;;;;10.48;52.03;98906.10;135333;1281;22520;-68
2023/05/02 00:15:06;;;;;;;;;;;;;;;10.50;52.45;98909.48;135347;1281;22505;-69
2023/05/02 00:18:09;;;;;;;;;;;;;;;10.44;52.56;98905.30;135331;1281;22509;-69
2023/05/02 00:21:12;;;;;;;;;;;;;;;10.40;53.32;98898.19;135366;1281;23940;-67
2023/05/02 00:24:15;;;;;;;;;;;;;;;10.33;54.00;98897.39;135401;1263;22504;-70
2023/05/02 00:27:27;;;;;;;;;;;;;;;10.26;53.81;98894.25;135356;1281;22560;-68
2023/05/02 00:30:29;;;;;;;;;;;;;;;10.19;53.65;98897.45;135338;1281;22630;-68
2023/05/02 00:33:35;;;;;;;;;;;;;;;10.17;53.81;98895.67;135389;1281;22517;-67
2023/05/02 00:36:39;;;;;;;;;;;;;;;10.13;54.02;98893.42;135349;1281;22522;-68
2023/05/02 00:39:43;;;;;;;;;;;;;;;10.19;54.09;98895.36;135407;1281;25345;-68
2023/05/02 00:42:47;;;;;;;;;;;;;;;10.13;54.37;98892.02;135370;1281;25231;-68
2023/05/02 00:45:51;;;;;;;;;;;;;;;10.04;54.74;98887.34;135377;1281;22501;-68
2023/05/02 00:48:57;;;;;;;;;;;;;;;9.97;55.03;98887.89;135357;1281;22508;-68
2023/05/02 00:52:01;;;;;;;;;;;;;;;9.93;54.99;98887.55;135360;1281;22509;-68
2023/05/02 00:55:04;;;;;;;;;;;;;;;10.00;55.08;98883.38;135394;1281;22580;-67
2023/05/02 00:58:07;;;;;;;;;;;;;;;10.04;55.40;98878.38;135369;1281;22515;-69
2023/05/02 01:01:11;;;;;;;;;;;;;;;10.00;55.49;98876.02;135369;1281;22506;-68
2023/05/02 01:04:13;;;;;;;;;;;;;;;9.99;55.58;98875.33;135358;1281;22510;-67
2023/05/02 01:07:16;;;;;;;;;;;;;;;9.97;55.86;98878.30;135367;1264;22524;-68
2023/05/02 01:10:22;;;;;;;;;;;;;;;9.94;56.06;98875.98;135383;1281;22505;-67
2023/05/02 01:13:26;;;;;;;;;;;;;;;9.91;56.03;98880.71;135378;1281;22530;-68
2023/05/02 01:16:29;;;;;;;;;;;;;;;9.88;56.30;98875.07;135354;1281;22544;-68
2023/05/02 01:19:33;;;;;;;;;;;;;;;9.90;56.36;98874.83;135362;1281;22497;-68
2023/05/02 01:22:36;;;;;;;;;;;;;;;9.92;56.08;98878.71;135365;1281;25409;-67
2023/05/02 01:25:40;;;;;;;;;;;;;;;9.91;56.23;98876.20;135423;1281;22977;-67
2023/05/02 01:28:43;;;;;;;;;;;;;;;9.89;56.51;98875.02;135359;1281;22525;-67
2023/05/02 01:31:46;;;;;;;;;;;;;;;9.89;56.85;98875.79;135365;1281;22704;-69
2023/05/02 01:34:50;;;;;;;;;;;;;;;9.85;56.91;98874.58;135365;1281;22566;-67
2023/05/02 01:37:53;;;;;;;;;;;;;;;9.80;57.18;98877.86;135383;1281;22619;-67
2023/05/02 01:40:56;;;;;;;;;;;;;;;9.85;57.18;98879.50;135347;1281;22986;-67
2023/05/02 01:43:59;;;;;;;;;;;;;;;9.86;56.73;98875.23;135349;1281;23191;-68
2023/05/02 01:47:04;;;;;;;;;;;;;;;9.83;56.96;98872.10;135424;1281;25504;-67
2023/05/02 01:50:08;;;;;;;;;;;;;;;9.78;57.66;98876.04;135401;1281;22616;-68
2023/05/02 01:53:12;;;;;;;;;;;;;;;9.79;57.30;98873.55;135330;1281;22557;-68
2023/05/02 01:56:15;;;;;;;;;;;;;;;9.76;57.20;98872.51;135378;1273;24453;-68
2023/05/02 01:59:18;;;;;;;;;;;;;;;9.75;57.76;98872.20;135366;1281;23213;-67
2023/05/02 02:02:21;;;;;;;;;;;;;;;9.74;57.59;98873.14;135377;1281;26354;-67
2023/05/02 02:05:24;;;;;;;;;;;;;;;9.77;57.93;98874.89;135394;1281;22521;-68
2023/05/02 02:08:36;;;;;;;;;;;;;;;9.78;57.86;98878.65;135429;1281;22517;-67
2023/05/02 02:11:39;;;;;;;;;;;;;;;9.82;57.60;98877.21;135369;1281;22507;-70
2023/05/02 02:14:43;;;;;;;;;;;;;;;9.80;57.95;98878.03;135343;1281;22645;-68
2023/05/02 02:17:46;;;;;;;;;;;;;;;9.83;58.19;98872.57;135365;1281;22617;-68
2023/05/02 02:20:49;;;;;;;;;;;;;;;9.81;58.39;98874.48;135355;1281;22635;-68
2023/05/02 02:23:53;;;;;;;;;;;;;;;9.80;58.06;98876.78;135387;1281;25332;-68
2023/05/02 02:26:56;;;;;;;;;;;;;;;9.75;58.75;98877.44;135357;1281;22524;-67
2023/05/02 02:29:59;;;;;;;;;;;;;;;9.69;59.36;98873.38;135374;1264;22590;-68
2023/05/02 02:33:01;;;;;;;;;;;;;;;9.71;59.22;98870.31;135329;1281;22531;-66
2023/05/02 02:36:04;;;;;;;;;;;;;;;9.71;59.50;98865.40;135369;1281;22520;-67
2023/05/02 02:39:07;;;;;;;;;;;;;;;9.71;59.36;98865.42;135359;1281;22616;-70
2023/05/02 02:42:10;;;;;;;;;;;;;;;9.68;59.86;98862.46;135348;1264;22505;-69
2023/05/02 02:45:12;;;;;;;;;;;;;;;9.67;60.01;98860.41;135388;1281;24219;-69
2023/05/02 02:48:16;;;;;;;;;;;;;;;9.67;60.37;98861.30;135335;1281;22515;-68
2023/05/02 02:51:19;;;;;;;;;;;;;;;9.69;59.88;98863.43;135340;1281;22583;-70
2023/05/02 02:54:22;;;;;;;;;;;;;;;9.65;60.22;98862.81;135253;1281;22511;-67
2023/05/02 02:57:25;;;;;;;;;;;;;;;9.60;60.74;98865.17;135354;1264;23183;-67
2023/05/02 03:00:28;;;;;;;;;;;;;;;9.57;60.95;98870.75;135353;1281;22509;-67
2023/05/02 03:03:31;;;;;;;;;;;;;;;9.49;61.01;98871.88;135387;1281;22511;-69
2023/05/02 03:06:34;;;;;;;;;;;;;;;9.48;61.29;98870.71;135339;1281;22500;-68
2023/05/02 03:09:37;;;;;;;;;;;;;;;9.45;61.51;98869.50;135344;1281;22521;-69
2023/05/02 03:12:40;;;;;;;;;;;;;;;9.44;61.15;98869.90;135410;1262;22616;-69
2023/05/02 03:15:43;;;;;;;;;;;;;;;9.33;62.09;98868.91;135391;1281;22579;-68
2023/05/02 03:18:46;;;;;;;;;;;;;;;9.34;62.47;98872.02;135360;1281;22634;-68
2023/05/02 03:21:50;;;;;;;;;;;;;;;9.39;62.19;98873.35;135362;1281;22521;-69
2023/05/02 03:24:53;;;;;;;;;;;;;;;9.35;62.55;98879.98;135379;1281;24370;-68
2023/05/02 03:27:56;;;;;;;;;;;;;;;9.33;63.02;98879.21;135377;1281;22614;-67
2023/05/02 03:30:59;;;;;;;;;;;;;;;9.27;63.39;98880.42;135387;1281;22602;-66
2023/05/02 03:34:05;;;;;;;;;;;;;;;9.31;64.02;98877.24;135424;1281;22523;-67
2023/05/02 03:37:08;;;;;;;;;;;;;;;9.41;64.03;98874.78;135411;1281;24192;-69
2023/05/02 03:40:11;;;;;;;;;;;;;;;9.52;63.59;98873.85;135343;1281;22507;-67
2023/05/02 03:43:15;;;;;;;;;;;;;;;9.59;63.42;98875.55;135378;1281;25641;-67
2023/05/02 03:46:18;;;;;;;;;;;;;;;9.71;63.47;98874.00;135424;1281;24030;-67
2023/05/02 03:49:22;;;;;;;;;;;;;;;9.84;63.27;98874.66;135355;1281;22504;-66
2023/05/02 03:52:25;;;;;;;;;;;;;;;9.77;63.89;98875.94;135396;1281;22513;-68
2023/05/02 03:55:28;;;;;;;;;;;;;;;9.81;64.15;98880.96;135370;1264;22515;-67
2023/05/02 03:58:31;;;;;;;;;;;;;;;10.05;63.36;98878.55;135390;1264;22500;-68
2023/05/02 04:01:34;;;;;;;;;;;;;;;10.12;63.69;98878.28;135389;1281;22515;-67
2023/05/02 04:08:04;;;;;;;;;;;;;;;10.44;62.42;98886.39;135379;1281;22512;-66
2023/05/02 04:11:07;;;;;;;;;;;;;;;10.58;62.33;98888.05;135389;1281;22554;-67
2023/05/02 04:14:11;;;;;;;;;;;;;;;10.72;61.65;98891.04;135399;1281;22498;-67
2023/05/02 04:17:15;;;;;;;;;;;;;;;10.80;62.02;98889.33;135348;1281;22504;-69
2023/05/02 04:20:18;;;;;;;;;;;;;;;10.84;62.06;98887.86;135376;1281;22518;-68
2023/05/02 04:23:22;;;;;;;;;;;;;;;11.03;61.30;98891.97;135411;1281;22581;-67
2023/05/02 04:26:24;;;;;;;;;;;;;;;11.17;61.68;98889.88;135382;1281;22734;-68
2023/05/02 04:29:31;;;;;;;;;;;;;;;11.30;61.08;98892.59;135374;1281;22529;-70
2023/05/02 04:32:34;;;;;;;;;;;;;;;11.47;61.21;98891.13;135387;1263;22508;-68
2023/05/02 04:35:41;;;;;;;;;;;;;;;11.62;60.86;98892.28;135438;1281;22508;-69
2023/05/02 04:38:44;;;;;;;;;;;;;;;11.80;60.44;98889.06;135412;1281;22505;-68
2023/05/02 04:41:46;;;;;;;;;;;;;;;12.02;60.32;98886.95;135429;1281;22518;-70
2023/05/02 04:44:50;;;;;;;;;;;;;;;12.24;59.99;98886.20;135417;1281;22514;-70
2023/05/02 04:47:53;;;;;;;;;;;;;;;12.49;59.86;98884.16;135372;1281;22530;-67
2023/05/02 04:50:56;;;;;;;;;;;;;;;12.82;59.38;98884.02;135438;1281;22505;-69
2023/05/02 04:53:59;;;;;;;;;;;;;;;13.19;58.72;98881.09;135379;1281;22508;-69
2023/05/02 04:57:02;;;;;;;;;;;;;;;13.54;58.89;98878.11;135406;1281;22626;-68
2023/05/02 05:00:05;;;;;;;;;;;;;;;13.87;57.87;98878.84;135407;1281;22537;-69
2023/05/02 05:03:08;;;;;;;;;;;;;;;14.05;57.49;98879.14;135380;1281;25212;-69
2023/05/02 05:06:11;;;;;;;;;;;;;;;14.19;57.10;98875.80;135408;1281;22507;-68
2023/05/02 05:09:14;;;;;;;;;;;;;;;14.45;56.52;98878.95;135397;1264;22501;-68
2023/05/02 05:12:17;;;;;;;;;;;;;;;14.65;56.03;98882.92;135346;1281;22517;-68
2023/05/02 05:15:21;;;;;;;;;;;;;;;14.86;55.43;98883.77;135358;1281;25348;-67
2023/05/02 05:18:24;;;;;;;;;;;;;;;15.05;55.34;98885.33;135395;1281;22521;-68
2023/05/02 05:21:27;;;;;;;;;;;;;;;15.20;55.22;98887.11;135394;1281;25386;-69
2023/05/02 05:24:30;;;;;;;;;;;;;;;15.28;55.26;98887.71;135352;1281;22504;-68
2023/05/02 05:27:33;;;;;;;;;;;;;;;15.49;54.44;98891.89;135318;1281;22511;-67
2023/05/02 05:30:36;;;;;;;;;;;;;;;15.74;54.46;98892.17;135337;1264;24242;-67
2023/05/02 05:33:39;;;;;;;;;;;;;;;16.10;53.92;98891.37;135305;1264;22767;-67
2023/05/02 05:36:42;;;;;;;;;;;;;;;16.76;52.63;98886.54;135366;1259;22657;-67
2023/05/02 05:39:48;;;;;;;;;;;;;;;17.17;51.76;98884.50;135399;1281;22501;-68
2023/05/02 05:42:51;;;;;;;;;;;;;;;17.36;51.08;98886.34;135371;1281;22514;-68
2023/05/02 05:45:58;;;;;;;;;;;;;;;17.50;50.23;98885.09;135400;1281;22497;-67
2023/05/02 05:49:01;;;;;;;;;;;;;;;17.66;49.70;98878.76;135379;1281;22512;-68
2023/05/02 05:52:05;;;;;;;;;;;;;;;17.74;49.49;98881.91;135365;1281;22516;-68
2023/05/02 05:55:08;;;;;;;;;;;;;;;17.94;48.83;98882.61;135408;1281;25463;-67
2023/05/02 05:58:11;;;;;;;;;;;;;;;18.05;48.22;98882.65;135386;1281;22515;-68
2023/05/02 06:01:14;;;;;;;;;;;;;;;18.12;48.05;98884.51;135352;1264;22830;-68
2023/05/02 06:04:16;;;;;;;;;;;;;;;18.22;47.71;98882.70;135375;1281;22501;-68
2023/05/02 06:07:21;;;;;;;;;;;;;;;18.24;47.80;98881.84;135370;1281;22501;-67
2023/05/02 06:10:25;;;;;;;;;;;;;;;18.47;47.86;98883.27;135378;1281;22536;-69
2023/05/02 06:13:28;;;;;;;;;;;;;;;18.64;47.18;98884.88;135423;1281;22527;-70
2023/05/02 06:16:32;;;;;;;;;;;;;;;18.78;46.92;98883.58;135365;1281;22553;-68
2023/05/02 06:19:35;;;;;;;;;;;;;;;19.17;45.99;98882.82;135392;1281;22520;-68
2023/05/02 06:22:38;;;;;;;;;;;;;;;19.43;45.96;98885.99;135422;1281;22518;-69
2023/05/02 06:25:42;;;;;;;;;;;;;;;19.62;45.57;98891.58;135387;1281;25329;-68
2023/05/02 06:28:49;;;;;;;;;;;;;;;19.79;45.37;98892.97;135361;1281;22633;-68
2023/05/02 06:31:52;;;;;;;;;;;;;;;19.98;44.77;98894.60;135434;1281;22513;-68
2023/05/02 06:34:56;;;;;;;;;;;;;;;20.10;45.17;98896.77;135374;1281;22489;-68
2023/05/02 06:37:59;;;;;;;;;;;;;;;20.34;44.46;98893.57;135374;1281;22590;-68
2023/05/02 06:41:03;;;;;;;;;;;;;;;20.56;44.34;98890.44;135341;1281;22538;-68
2023/05/02 06:44:06;;;;;;;;;;;;;;;20.84;44.16;98887.98;135377;1281;22543;-69
2023/05/02 06:47:11;;;;;;;;;;;;;;;21.05;44.08;98887.48;135356;1281;22508;-68
2023/05/02 06:50:13;;;;;;;;;;;;;;;21.33;43.43;98890.20;135383;1281;22508;-69
2023/05/02 06:53:17;;;;;;;;;;;;;;;21.53;42.89;98889.73;135348;1281;22516;-69
2023/05/02 06:56:21;;;;;;;;;;;;;;;21.96;42.07;98888.75;135366;1281;25214;-69
2023/05/02 06:59:25;;;;;;;;;;;;;;;22.24;41.35;98891.77;135384;1281;22504;-69
2023/05/02 07:02:28;;;;;;;;;;;;;;;22.39;40.42;98887.33;135350;1281;22507;-68
2023/05/02 07:05:31;;;;;;;;;;;;;;;22.57;39.65;98888.27;135400;1281;22522;-68
2023/05/02 07:08:34;;;;;;;;;;;;;;;22.79;39.17;98889.70;135372;1281;22651;-69
2023/05/02 07:11:38;;;;;;;;;;;;;;;22.76;37.06;98894.66;135410;1281;24276;-69
2023/05/02 07:14:41;;;;;;;;;;;;;;;22.76;36.96;98886.10;135384;1281;22500;-69
2023/05/02 07:17:46;;;;;;;;;;;;;;;22.87;36.69;98894.06;135355;1281;22535;-69
2023/05/02 07:20:50;;;;;;;;;;;;;;;22.75;37.16;98890.15;135416;1281;22516;-69
2023/05/02 07:23:56;;;;;;;;;;;;;;;23.03;36.96;98898.50;135377;1281;22616;-69
2023/05/02 07:26:59;;;;;;;;;;;;;;;23.11;37.60;98893.67;135410;1281;24223;-69
2023/05/02 07:30:03;;;;;;;;;;;;;;;23.17;35.84;98896.80;135417;1281;22507;-68
2023/05/02 07:33:06;;;;;;;;;;;;;;;22.74;36.08;98903.29;135360;1281;22510;-68
2023/05/02 07:36:09;;;;;;;;;;;;;;;22.75;37.02;98908.49;135381;1281;24289;-69
2023/05/02 07:39:13;;;;;;;;;;;;;;;22.73;36.83;98905.42;135374;1281;22536;-69
2023/05/02 07:42:16;;;;;;;;;;;;;;;22.74;36.86;98906.56;135336;1281;22512;-69
2023/05/02 07:45:19;;;;;;;;;;;;;;;22.72;37.26;98904.02;135423;1281;23980;-70
2023/05/02 07:48:22;;;;;;;;;;;;;;;22.86;36.75;98913.62;135392;1264;22495;-69
2023/05/02 07:51:26;;;;;;;;;;;;;;;22.84;37.68;98914.13;135421;1281;22543;-70
2023/05/02 07:54:28;;;;;;;;;;;;;;;22.87;37.31;98924.34;135373;1281;22500;-69
2023/05/02 07:57:31;;;;;;;;;;;;;;;22.89;36.73;98935.20;135347;1262;22511;-69
2023/05/02 08:00:34;;;;;;;;;;;;;;;23.04;38.67;98928.28;135356;1281;22507;-69
2023/05/02 08:03:37;;;;;;;;;;;;;;;23.29;37.66;98919.73;135346;1281;22627;-68
2023/05/02 08:06:40;;;;;;;;;;;;;;;23.33;37.56;98928.85;135341;1280;22588;-69
2023/05/02 08:09:44;;;;;;;;;;;;;;;23.17;37.39;98942.86;135379;1281;22554;-69
2023/05/02 08:12:47;;;;;;;;;;;;;;;22.96;37.66;98949.02;135309;1281;22508;-69
2023/05/02 08:15:50;;;;;;;;;;;;;;;23.02;38.45;98942.47;135355;1281;26480;-69
2023/05/02 08:18:53;;;;;;;;;;;;;;;23.14;37.97;98948.98;135365;1264;22766;-69
2023/05/02 08:21:57;;;;;;;;;;;;;;;23.14;37.69;98951.36;135346;1281;22545;-70
2023/05/02 08:25:00;;;;;;;;;;;;;;;23.18;37.74;98939.77;135386;1262;22508;-67
2023/05/02 08:28:03;;;;;;;;;;;;;;;23.20;38.08;98943.19;135378;1281;24315;-69
2023/05/02 08:31:07;;;;;;;;;;;;;;;23.41;37.84;98943.50;135365;1281;22522;-69
2023/05/02 08:34:09;;;;;;;;;;;;;;;23.68;37.66;98942.62;135340;1281;25243;-69
2023/05/02 08:37:12;;;;;;;;;;;;;;;23.89;37.65;98947.67;135331;1281;22613;-68
2023/05/02 08:40:15;;;;;;;;;;;;;;;23.87;36.94;98954.71;135384;1281;22514;-69
2023/05/02 08:43:22;;;;;;;;;;;;;;;24.24;38.04;98947.42;135363;1281;22545;-69
2023/05/02 08:46:29;;;;;;;;;;;;;;;24.23;36.39;98960.48;135420;1262;22504;-69
2023/05/02 08:49:32;;;;;;;;;;;;;;;24.12;36.85;98959.23;135289;1274;22538;-69
2023/05/02 08:52:35;;;;;;;;;;;;;;;23.87;36.20;98970.64;135199;1281;22527;-69
2023/05/02 08:55:39;;;;;;;;;;;;;;;23.78;36.85;98969.98;135547;1281;22579;-68
2023/05/02 08:58:42;;;;;;;;;;;;;;;23.83;37.29;98965.90;135412;1281;22529;-69
2023/05/02 09:01:46;;;;;;;;;;;;;;;23.58;36.97;98966.79;135519;1281;22547;-69
2023/05/02 09:04:49;;;;;;;;;;;;;;;23.51;38.23;98962.58;135404;1263;22512;-71
2023/05/02 09:07:52;;;;;;;;;;;;;;;23.47;37.22;98960.88;135218;1281;23325;-69
2023/05/02 09:10:55;;;;;;;;;;;;;;;23.46;37.91;98965.16;135302;1281;22530;-69
2023/05/02 09:14:02;;;;;;;;;;;;;;;23.50;37.49;98985.25;135282;1264;22549;-69
2023/05/02 09:17:05;;;;;;;;;;;;;;;23.53;37.86;98987.15;135259;1281;22529;-69
2023/05/02 09:20:08;;;;;;;;;;;;;;;23.86;37.82;98979.32;135226;1263;22514;-69
2023/05/02 09:23:11;;;;;;;;;;;;;;;23.63;36.91;98993.54;135298;1264;22505;-68
2023/05/02 09:26:14;;;;;;;;;;;;;;;23.73;38.40;98989.11;135373;1271;22506;-69
2023/05/02 09:29:17;;;;;;;;;;;;;;;23.72;37.51;98983.55;135370;1281;22523;-70
2023/05/02 09:32:20;;;;;;;;;;;;;;;23.79;38.19;98979.96;135363;1281;22507;-70
2023/05/02 09:35:23;;;;;;;;;;;;;;;24.49;38.20;98978.80;135357;1262;22616;-69
2023/05/02 09:38:26;;;;;;;;;;;;;;;25.32;36.90;98977.38;135354;1281;22526;-70
2023/05/02 09:41:29;;;;;;;;;;;;;;;25.59;36.34;98976.43;135331;1281;22554;-69
2023/05/02 09:44:32;;;;;;;;;;;;;;;26.05;35.89;98975.49;135373;1264;24251;-69
2023/05/02 09:47:35;;;;;;;;;;;;;;;25.97;35.38;98970.57;135358;1281;22526;-69
2023/05/02 09:50:38;;;;;;;;;;;;;;;25.49;36.04;98977.99;135342;1281;22554;-68
2023/05/02 09:53:41;;;;;;;;;;;;;;;25.17;35.84;98986.27;135397;1281;22527;-68
2023/05/02 09:56:44;;;;;;;;;;;;;;;24.56;36.64;98990.94;135370;1281;22500;-68
2023/05/02 09:59:47;;;;;;;;;;;;;;;24.01;37.22;98997.47;135319;1281;22504;-69
2023/05/02 10:02:50;;;;;;;;;;;;;;;23.67;38.24;98996.19;135401;1281;22509;-69
2023/05/02 10:05:54;;;;;;;;;;;;;;;23.38;38.37;98996.80;135343;1281;22500;-70
2023/05/02 10:08:58;;;;;;;;;;;;;;;23.12;39.07;99000.61;135395;1281;22609;-69
2023/05/02 10:12:02;;;;;;;;;;;;;;;23.03;39.09;99003.30;135387;1263;22529;-68
2023/05/02 10:15:06;;;;;;;;;;;;;;;23.27;39.64;98995.76;135392;1281;22617;-70
2023/05/02 10:18:09;;;;;;;;;;;;;;;23.84;39.46;98995.44;135353;1281;22504;-69
2023/05/02 10:21:12;;;;;;;;;;;;;;;24.00;38.48;99000.05;135447;1281;26488;-69
2023/05/02 10:24:15;;;;;;;;;;;;;;;24.01;38.68;99000.08;135349;1281;22504;-69
2023/05/02 10:27:18;;;;;;;;;;;;;;;24.01;37.95;99006.02;135331;1281;22514;-69
2023/05/02 10:30:22;;;;;;;;;;;;;;;24.12;38.34;98996.86;135366;1281;22613;-69
2023/05/02 10:33:30;;;;;;;;;;;;;;;24.73;37.75;99009.52;135366;1281;23748;-69
2023/05/02 10:36:35;;;;;;;;;;;;;;;24.49;37.32;99013.95;135384;1265;22661;-69
2023/05/02 10:39:38;;;;;;;;;;;;;;;24.70;38.75;99008.60;135348;1281;22501;-69
2023/05/02 10:42:41;;;;;;;;;;;;;;;25.27;37.70;99002.41;135409;1281;22514;-69
2023/05/02 10:45:44;;;;;;;;;;;;;;;25.50;36.78;99014.80;135324;1281;22519;-69
2023/05/02 10:48:47;;;;;;;;;;;;;;;25.61;36.84;99002.64;135316;1281;22501;-70
2023/05/02 10:51:50;;;;;;;;;;;;;;;25.22;37.04;99014.10;135315;1281;22504;-69
2023/05/02 10:54:53;;;;;;;;;;;;;;;24.90;36.77;99013.07;135336;1281;22500;-70
2023/05/02 10:57:56;;;;;;;;;;;;;;;25.17;37.19;99013.48;135358;1281;22520;-69
2023/05/02 11:00:59;;;;;;;;;;;;;;;24.88;36.95;99012.21;135292;1264;23261;-69
2023/05/02 11:04:02;;;;;;;;;;;;;;;25.14;37.25;99017.61;135301;1281;22511;-69
2023/05/02 11:07:06;;;;;;;;;;;;;;;25.15;36.60;99010.48;135310;1264;22542;-69
2023/05/02 11:10:09;;;;;;;;;;;;;;;24.85;36.91;99021.55;135340;1281;24762;-70
2023/05/02 11:13:12;;;;;;;;;;;;;;;24.10;37.14;99017.08;135297;1281;22515;-69
2023/05/02 11:16:16;;;;;;;;;;;;;;;23.85;38.71;99018.48;135347;1264;24212;-70
2023/05/02 11:19:19;;;;;;;;;;;;;;;23.65;40.58;99030.55;135328;1281;25231;-70
2023/05/02 11:22:26;;;;;;;;;;;;;;;23.48;40.54;99026.38;135364;1281;22520;-69
2023/05/02 11:25:30;;;;;;;;;;;;;;;23.45;41.85;99032.82;135336;1281;22504;-70
2023/05/02 11:28:32;;;;;;;;;;;;;;;23.30;41.98;99028.70;135337;1280;22514;-71
2023/05/02 11:31:35;;;;;;;;;;;;;;;23.31;41.55;99033.27;135330;1281;22531;-69
2023/05/02 11:34:39;;;;;;;;;;;;;;;23.65;41.07;99034.82;135334;1281;22504;-70
2023/05/02 11:37:42;;;;;;;;;;;;;;;24.02;40.96;99032.35;135378;1281;22530;-71
2023/05/02 11:40:46;;;;;;;;;;;;;;;24.14;40.51;99039.20;135337;1281;24205;-70
2023/05/02 11:43:48;;;;;;;;;;;;;;;24.30;40.49;99044.26;135333;1281;25330;-69
2023/05/02 11:46:51;;;;;;;;;;;;;;;24.63;40.18;99043.08;135304;1281;22519;-70
2023/05/02 11:49:54;;;;;;;;;;;;;;;24.58;40.43;99043.44;135097;1281;22549;-69
2023/05/02 11:52:57;;;;;;;;;;;;;;;24.05;39.20;99051.26;135021;1281;22545;-69
2023/05/02 11:56:00;;;;;;;;;;;;;;;23.67;40.83;99054.06;135111;1281;22509;-69
2023/05/02 11:59:03;;;;;;;;;;;;;;;23.20;40.91;99056.98;135261;1281;22523;-69
2023/05/02 12:02:06;;;;;;;;;;;;;;;22.86;41.09;99055.81;135236;1281;22509;-69
2023/05/02 12:05:09;;;;;;;;;;;;;;;22.71;41.53;99065.33;131247;1263;5374539;-70
2023/05/02 12:08:13;;;;;;;;;;;;;;;22.43;42.73;99066.27;135308;1281;25266;-70
2023/05/02 12:11:17;;;;;;;;;;;;;;;22.22;42.92;99070.95;135375;1281;24397;-69
2023/05/02 12:14:20;;;;;;;;;;;;;;;22.11;43.15;99073.89;135358;1281;22505;-69
2023/05/02 12:17:24;;;;;;;;;;;;;;;22.07;44.20;99073.96;135358;1281;22514;-70
2023/05/02 12:20:27;;;;;;;;;;;;;;;22.11;43.58;99076.41;135378;1281;22511;-70
2023/05/02 12:23:31;;;;;;;;;;;;;;;22.06;43.85;99073.89;135300;1281;22613;-73
2023/05/02 12:26:33;;;;;;;;;;;;;;;21.95;44.48;99086.27;135338;1281;22502;-70
2023/05/02 12:29:37;;;;;;;;;;;;;;;22.00;44.19;99080.02;135321;1281;22523;-70
2023/05/02 12:32:44;;;;;;;;;;;;;;;22.16;44.97;99084.76;135327;1281;22637;-70
2023/05/02 12:35:47;;;;;;;;;;;;;;;22.33;44.29;99093.70;135331;1281;22500;-69
2023/05/02 12:38:53;;;;;;;;;;;;;;;22.45;43.79;99097.76;135308;1281;22507;-70
2023/05/02 12:41:56;;;;;;;;;;;;;;;22.45;44.11;99087.23;135370;1281;22663;-70
2023/05/02 12:45:01;;;;;;;;;;;;;;;22.32;43.86;99099.73;135331;1281;22513;-70
2023/05/02 12:48:06;;;;;;;;;;;;;;;22.16;44.01;99100.29;135357;1281;22517;-69
2023/05/02 12:51:10;;;;;;;;;;;;;;;22.40;43.79;99095.45;135335;1281;22648;-70
2023/05/02 12:54:14;;;;;;;;;;;;;;;22.76;43.62;99098.95;135293;1281;22500;-69
2023/05/02 12:57:17;;;;;;;;;;;;;;;22.68;42.37;99104.95;135288;1281;22503;-72
2023/05/02 13:00:21;;;;;;;;;;;;;;;22.58;42.24;99098.63;135337;1281;22490;-69
2023/05/02 13:03:26;;;;;;;;;;;;;;;22.49;42.88;99100.44;135338;1281;22526;-71
2023/05/02 13:06:31;;;;;;;;;;;;;;;22.48;42.96;99098.07;135314;1281;22512;-70
2023/05/02 13:09:35;;;;;;;;;;;;;;;22.85;42.34;99099.98;135301;1281;22585;-71
2023/05/02 13:12:38;;;;;;;;;;;;;;;23.06;41.86;99107.55;135297;1281;25394;-69
2023/05/02 13:15:41;;;;;;;;;;;;;;;23.01;41.86;99108.06;135330;1268;22511;-69
2023/05/02 13:18:45;;;;;;;;;;;;;;;23.01;41.64;99105.95;135269;1281;22507;-69
2023/05/02 13:21:48;;;;;;;;;;;;;;;23.04;41.77;99109.70;135324;1281;22511;-69
2023/05/02 13:24:52;;;;;;;;;;;;;;;22.70;41.04;99121.13;135302;1281;22503;-70
2023/05/02 13:27:55;;;;;;;;;;;;;;;22.75;41.63;99109.38;135331;1281;22503;-71
2023/05/02 13:31:00;;;;;;;;;;;;;;;22.73;41.21;99119.20;135310;1281;22505;-70
2023/05/02 13:34:05;;;;;;;;;;;;;;;22.72;41.78;99118.43;135327;1281;22511;-70
2023/05/02 13:37:09;;;;;;;;;;;;;;;22.81;41.50;99120.17;135308;1281;22543;-69
2023/05/02 13:40:14;;;;;;;;;;;;;;;22.87;41.01;99121.35;135307;1281;22504;-69
2023/05/02 13:43:17;;;;;;;;;;;;;;;22.85;41.08;99136.13;135304;1281;22586;-70
2023/05/02 13:46:20;;;;;;;;;;;;;;;22.85;41.05;99122.98;135292;1269;24239;-70
2023/05/02 13:49:24;;;;;;;;;;;;;;;22.78;41.65;99137.09;135233;1281;22510;-69
2023/05/02 13:52:26;;;;;;;;;;;;;;;22.68;40.76;99137.08;135296;1281;22516;-69
2023/05/02 13:55:30;;;;;;;;;;;;;;;22.58;40.18;99132.60;135335;1281;22505;-70
2023/05/02 13:58:33;;;;;;;;;;;;;;;22.56;40.42;99126.95;135314;1281;25440;-69
2023/05/02 14:01:39;;;;;;;;;;;;;;;22.64;39.94;99125.90;135336;1265;22532;-70
2023/05/02 14:04:42;;;;;;;;;;;;;;;22.64;40.34;99126.42;135264;1281;22547;-69
2023/05/02 14:07:45;;;;;;;;;;;;;;;22.65;39.75;99129.88;135290;1281;22515;-69
2023/05/02 14:10:50;;;;;;;;;;;;;;;22.52;39.59;99133.83;135257;1281;24191;-69
2023/05/02 14:13:53;;;;;;;;;;;;;;;22.40;38.98;99124.30;135208;1281;22519;-69
2023/05/02 14:16:56;;;;;;;;;;;;;;;22.39;39.33;99120.35;135296;1276;22621;-70
2023/05/02 14:19:59;;;;;;;;;;;;;;;22.53;39.51;99119.96;135332;1281;22526;-69
2023/05/02 14:23:02;;;;;;;;;;;;;;;22.57;40.39;99121.28;135306;1281;22514;-69
2023/05/02 14:26:05;;;;;;;;;;;;;;;22.27;38.51;99134.91;135321;1265;22637;-70
2023/05/02 14:29:11;;;;;;;;;;;;;;;21.96;39.09;99130.85;135288;1281;22555;-70
2023/05/02 14:32:14;;;;;;;;;;;;;;;21.87;39.30;99140.34;135303;1281;22519;-70
2023/05/02 14:35:17;;;;;;;;;;;;;;;21.65;39.60;99143.81;135325;1264;22635;-71
2023/05/02 14:38:20;;;;;;;;;;;;;;;21.45;40.10;99152.40;135310;1281;22507;-70
2023/05/02 14:41:26;;;;;;;;;;;;;;;21.30;40.89;99150.01;135300;1281;25394;-69
2023/05/02 14:44:29;;;;;;;;;;;;;;;21.40;41.25;99154.48;135305;1281;22500;-70
2023/05/02 14:47:35;;;;;;;;;;;;;;;21.47;40.03;99155.61;135310;1281;24214;-70
2023/05/02 14:50:42;;;;;;;;;;;;;;;21.57;40.01;99156.40;135347;1281;25371;-69
2023/05/02 14:53:45;;;;;;;;;;;;;;;21.50;39.52;99147.98;135340;1281;22525;-69
2023/05/02 14:56:50;;;;;;;;;;;;;;;21.60;39.85;99143.78;135261;1281;22546;-68
2023/05/02 14:59:54;;;;;;;;;;;;;;;21.60;39.62;99145.92;135293;1281;22511;-67
2023/05/02 15:02:58;;;;;;;;;;;;;;;21.60;39.71;99142.17;135391;1281;22524;-68
2023/05/02 15:06:02;;;;;;;;;;;;;;;21.59;40.43;99142.80;135332;1281;22497;-68
2023/05/02 15:09:06;;;;;;;;;;;;;;;21.59;39.97;99143.38;135286;1281;22555;-68
2023/05/02 15:12:10;;;;;;;;;;;;;;;21.64;40.21;99143.37;135314;1281;22493;-69
2023/05/02 15:15:14;;;;;;;;;;;;;;;21.69;40.29;99143.38;135324;1281;22515;-69
2023/05/02 15:18:18;;;;;;;;;;;;;;;21.69;39.84;99145.56;135323;1281;22501;-68
2023/05/02 15:21:21;;;;;;;;;;;;;;;21.70;40.03;99147.38;135325;1281;22614;-68
2023/05/02 15:24:25;;;;;;;;;;;;;;;21.81;40.31;99147.24;135338;1281;22566;-69
2023/05/02 15:27:28;;;;;;;;;;;;;;;21.80;39.90;99153.55;135318;1281;22520;-68
2023/05/02 15:30:33;;;;;;;;;;;;;;;21.85;40.94;99152.78;135332;1281;22554;-68
2023/05/02 15:33:36;;;;;;;;;;;;;;;21.79;41.25;99156.82;135390;1275;22521;-70
2023/05/02 15:36:39;;;;;;;;;;;;;;;21.74;41.85;99160.36;135323;1281;22505;-68
2023/05/02 15:39:43;;;;;;;;;;;;;;;21.70;40.71;99168.23;135317;1281;22510;-68
2023/05/02 15:42:47;;;;;;;;;;;;;;;21.59;40.85;99169.30;135345;1278;22500;-69
2023/05/02 15:45:51;;;;;;;;;;;;;;;21.53;40.86;99175.45;135340;1281;22516;-68
2023/05/02 15:48:54;;;;;;;;;;;;;;;21.33;41.88;99178.37;135347;1281;22566;-67